Pays
Station

 

Conditions  météo  pour  San Diego, Brown Field Municipal Airport  -  Etats-Unis    Etats-Unis

  
19 °C
    
 
 

METAR pour San Diego, Brown Field Municipal Airport :

KSDM 232053Z 28008G14KT 10SM CLR 19/13 A2995 RMK AO2 SLP140 T01940128 55006

 

Voici le bulletin pour San Diego, Brown Field Municipal Airport - Etats-Unis.
 
Le bulletin a été fait il y a une heure et 7 minutes, à 20:53 UTC .
Le vent soufflait à la vitesse de 4.1 mètres par seconde avec des rafales jusqu'à 7.2 mètres par seconde de Ouest (280°).
 
La température était de 19 °C, avec un point de rosée à 13 °C.
La pression atmosphérique était de 1014 hPa.
L'humidité relative était de 68.2%.
 
Le ciel était clair.
 
La visibilité globale était de 16.1 kilomètres.
 

 
 
 

Pays :   A   B   C   D   E   F   G   H   I   J   K   L   M   N   O   P   Q   R   S   T   U   V   W   Y   Z

 

Partenaires :  Info Météo avec Met'info
Météo Marine avec MeteoMarine.net
Infos Site  |  Infos Légales  |  Crédits  |  Confidentialité
Contactez-nous  |  Ajouter aux favoris
© 2013-2019 METAR - Tous droits réservés